sensor_id;sensor_type;location;lat;lon;timestamp;P1;durP1;ratioP1;P2;durP2;ratioP2
82000;SDS011;71510;50.558;7.258;2023-12-28T00:01:51;3.58;;;2.20;;
82000;SDS011;71510;50.558;7.258;2023-12-28T00:04:18;5.75;;;2.90;;
82000;SDS011;71510;50.558;7.258;2023-12-28T00:06:46;3.27;;;2.37;;
82000;SDS011;71510;50.558;7.258;2023-12-28T00:09:13;3.62;;;2.80;;
82000;SDS011;71510;50.558;7.258;2023-12-28T00:11:40;5.58;;;2.45;;
82000;SDS011;71510;50.558;7.258;2023-12-28T00:14:08;5.65;;;2.67;;
82000;SDS011;71510;50.558;7.258;2023-12-28T00:16:35;3.05;;;2.37;;
82000;SDS011;71510;50.558;7.258;2023-12-28T00:19:03;4.72;;;2.70;;
82000;SDS011;71510;50.558;7.258;2023-12-28T00:21:31;4.90;;;2.67;;
82000;SDS011;71510;50.558;7.258;2023-12-28T00:23:58;4.87;;;2.70;;
82000;SDS011;71510;50.558;7.258;2023-12-28T00:26:25;6.40;;;2.35;;
82000;SDS011;71510;50.558;7.258;2023-12-28T00:28:53;5.10;;;2.30;;
82000;SDS011;71510;50.558;7.258;2023-12-28T00:31:20;6.15;;;2.83;;
82000;SDS011;71510;50.558;7.258;2023-12-28T00:33:47;4.75;;;2.55;;
82000;SDS011;71510;50.558;7.258;2023-12-28T00:36:16;3.67;;;2.42;;
82000;SDS011;71510;50.558;7.258;2023-12-28T00:38:43;3.70;;;2.33;;
82000;SDS011;71510;50.558;7.258;2023-12-28T00:41:11;5.90;;;3.05;;
82000;SDS011;71510;50.558;7.258;2023-12-28T00:43:38;3.20;;;2.65;;
82000;SDS011;71510;50.558;7.258;2023-12-28T00:46:05;4.05;;;2.58;;
82000;SDS011;71510;50.558;7.258;2023-12-28T00:48:32;3.17;;;2.37;;
82000;SDS011;71510;50.558;7.258;2023-12-28T00:51:00;3.47;;;2.62;;
82000;SDS011;71510;50.558;7.258;2023-12-28T00:53:27;6.15;;;2.40;;
82000;SDS011;71510;50.558;7.258;2023-12-28T00:55:54;4.28;;;2.75;;
82000;SDS011;71510;50.558;7.258;2023-12-28T00:58:22;5.37;;;2.47;;
82000;SDS011;71510;50.558;7.258;2023-12-28T01:00:49;4.30;;;3.10;;
82000;SDS011;71510;50.558;7.258;2023-12-28T01:03:18;4.15;;;2.62;;
82000;SDS011;71510;50.558;7.258;2023-12-28T01:05:46;4.47;;;2.20;;
82000;SDS011;71510;50.558;7.258;2023-12-28T01:08:15;4.65;;;3.12;;
82000;SDS011;71510;50.558;7.258;2023-12-28T01:10:42;5.55;;;2.25;;
82000;SDS011;71510;50.558;7.258;2023-12-28T01:13:10;3.20;;;2.77;;
82000;SDS011;71510;50.558;7.258;2023-12-28T01:15:37;4.08;;;2.27;;
82000;SDS011;71510;50.558;7.258;2023-12-28T01:18:04;2.72;;;2.05;;
82000;SDS011;71510;50.558;7.258;2023-12-28T01:20:31;3.58;;;2.50;;
82000;SDS011;71510;50.558;7.258;2023-12-28T01:22:59;5.95;;;2.40;;
82000;SDS011;71510;50.558;7.258;2023-12-28T01:25:26;8.38;;;3.90;;
82000;SDS011;71510;50.558;7.258;2023-12-28T01:27:53;3.50;;;2.37;;
82000;SDS011;71510;50.558;7.258;2023-12-28T01:30:21;4.37;;;2.45;;
82000;SDS011;71510;50.558;7.258;2023-12-28T01:32:48;5.58;;;3.30;;
82000;SDS011;71510;50.558;7.258;2023-12-28T01:35:15;3.52;;;2.65;;
82000;SDS011;71510;50.558;7.258;2023-12-28T01:37:43;2.90;;;2.22;;
82000;SDS011;71510;50.558;7.258;2023-12-28T01:40:10;5.37;;;2.40;;
82000;SDS011;71510;50.558;7.258;2023-12-28T01:42:37;3.02;;;2.35;;
82000;SDS011;71510;50.558;7.258;2023-12-28T01:45:05;3.62;;;2.20;;
82000;SDS011;71510;50.558;7.258;2023-12-28T01:47:32;2.45;;;2.10;;
82000;SDS011;71510;50.558;7.258;2023-12-28T01:50:00;4.22;;;2.35;;
82000;SDS011;71510;50.558;7.258;2023-12-28T01:52:28;4.45;;;2.00;;
82000;SDS011;71510;50.558;7.258;2023-12-28T01:54:56;3.47;;;2.15;;
82000;SDS011;71510;50.558;7.258;2023-12-28T01:57:23;3.62;;;2.20;;
82000;SDS011;71510;50.558;7.258;2023-12-28T01:59:51;4.47;;;2.02;;
82000;SDS011;71510;50.558;7.258;2023-12-28T02:02:19;3.10;;;2.22;;
82000;SDS011;71510;50.558;7.258;2023-12-28T02:04:46;3.83;;;1.77;;
82000;SDS011;71510;50.558;7.258;2023-12-28T02:07:13;3.77;;;1.65;;
82000;SDS011;71510;50.558;7.258;2023-12-28T02:09:41;3.95;;;2.12;;
82000;SDS011;71510;50.558;7.258;2023-12-28T02:12:09;2.05;;;1.70;;
82000;SDS011;71510;50.558;7.258;2023-12-28T02:14:36;2.30;;;1.80;;
82000;SDS011;71510;50.558;7.258;2023-12-28T02:17:04;2.12;;;1.92;;
82000;SDS011;71510;50.558;7.258;2023-12-28T02:19:39;1.82;;;1.50;;
82000;SDS011;71510;50.558;7.258;2023-12-28T02:22:01;3.00;;;1.67;;
82000;SDS011;71510;50.558;7.258;2023-12-28T02:24:29;3.05;;;1.77;;
82000;SDS011;71510;50.558;7.258;2023-12-28T02:26:57;4.00;;;1.92;;
82000;SDS011;71510;50.558;7.258;2023-12-28T02:29:24;5.80;;;2.25;;
82000;SDS011;71510;50.558;7.258;2023-12-28T02:31:53;3.35;;;2.40;;
82000;SDS011;71510;50.558;7.258;2023-12-28T02:34:22;3.80;;;2.65;;
82000;SDS011;71510;50.558;7.258;2023-12-28T02:36:49;3.92;;;2.12;;
82000;SDS011;71510;50.558;7.258;2023-12-28T02:39:17;3.00;;;2.08;;
82000;SDS011;71510;50.558;7.258;2023-12-28T02:41:45;3.10;;;2.33;;
82000;SDS011;71510;50.558;7.258;2023-12-28T02:44:13;4.70;;;2.75;;
82000;SDS011;71510;50.558;7.258;2023-12-28T02:46:40;3.22;;;2.05;;
82000;SDS011;71510;50.558;7.258;2023-12-28T02:49:07;3.33;;;2.30;;
82000;SDS011;71510;50.558;7.258;2023-12-28T02:51:36;4.35;;;2.35;;
82000;SDS011;71510;50.558;7.258;2023-12-28T02:54:03;4.17;;;2.20;;
82000;SDS011;71510;50.558;7.258;2023-12-28T02:56:31;2.77;;;2.20;;
82000;SDS011;71510;50.558;7.258;2023-12-28T02:58:59;5.92;;;2.50;;
82000;SDS011;71510;50.558;7.258;2023-12-28T03:01:26;2.58;;;1.90;;
82000;SDS011;71510;50.558;7.258;2023-12-28T03:03:54;2.37;;;1.95;;
82000;SDS011;71510;50.558;7.258;2023-12-28T03:06:22;2.50;;;1.80;;
82000;SDS011;71510;50.558;7.258;2023-12-28T03:08:49;3.40;;;2.37;;
82000;SDS011;71510;50.558;7.258;2023-12-28T03:11:16;2.87;;;1.98;;
82000;SDS011;71510;50.558;7.258;2023-12-28T03:13:43;2.55;;;2.10;;
82000;SDS011;71510;50.558;7.258;2023-12-28T03:16:12;2.72;;;2.00;;
82000;SDS011;71510;50.558;7.258;2023-12-28T03:18:40;3.12;;;2.35;;
82000;SDS011;71510;50.558;7.258;2023-12-28T03:21:07;6.10;;;2.40;;
82000;SDS011;71510;50.558;7.258;2023-12-28T03:23:34;3.20;;;2.25;;
82000;SDS011;71510;50.558;7.258;2023-12-28T03:26:02;2.95;;;1.82;;
82000;SDS011;71510;50.558;7.258;2023-12-28T03:28:29;2.90;;;2.37;;
82000;SDS011;71510;50.558;7.258;2023-12-28T03:30:56;2.47;;;1.65;;
82000;SDS011;71510;50.558;7.258;2023-12-28T03:33:25;3.65;;;1.72;;
82000;SDS011;71510;50.558;7.258;2023-12-28T03:35:53;3.22;;;1.92;;
82000;SDS011;71510;50.558;7.258;2023-12-28T03:38:20;2.85;;;2.05;;
82000;SDS011;71510;50.558;7.258;2023-12-28T03:40:48;2.15;;;1.72;;
82000;SDS011;71510;50.558;7.258;2023-12-28T03:43:16;3.00;;;1.80;;
82000;SDS011;71510;50.558;7.258;2023-12-28T03:45:43;4.33;;;2.00;;
82000;SDS011;71510;50.558;7.258;2023-12-28T03:48:10;2.25;;;1.90;;
82000;SDS011;71510;50.558;7.258;2023-12-28T03:50:38;3.35;;;2.10;;
82000;SDS011;71510;50.558;7.258;2023-12-28T03:53:05;2.95;;;2.20;;
82000;SDS011;71510;50.558;7.258;2023-12-28T03:55:32;2.85;;;1.95;;
82000;SDS011;71510;50.558;7.258;2023-12-28T03:58:00;2.05;;;1.67;;
82000;SDS011;71510;50.558;7.258;2023-12-28T04:00:27;2.40;;;2.20;;
82000;SDS011;71510;50.558;7.258;2023-12-28T04:02:54;2.92;;;2.05;;
82000;SDS011;71510;50.558;7.258;2023-12-28T04:05:23;2.72;;;1.92;;
82000;SDS011;71510;50.558;7.258;2023-12-28T04:07:51;2.75;;;1.87;;
82000;SDS011;71510;50.558;7.258;2023-12-28T04:10:27;4.08;;;2.37;;
82000;SDS011;71510;50.558;7.258;2023-12-28T04:12:47;3.72;;;2.15;;
82000;SDS011;71510;50.558;7.258;2023-12-28T04:15:14;2.62;;;2.00;;
82000;SDS011;71510;50.558;7.258;2023-12-28T04:17:41;2.25;;;1.82;;
82000;SDS011;71510;50.558;7.258;2023-12-28T04:20:09;2.83;;;1.92;;
82000;SDS011;71510;50.558;7.258;2023-12-28T04:22:36;3.08;;;2.22;;
82000;SDS011;71510;50.558;7.258;2023-12-28T04:25:03;2.87;;;2.27;;
82000;SDS011;71510;50.558;7.258;2023-12-28T04:27:31;6.15;;;2.70;;
82000;SDS011;71510;50.558;7.258;2023-12-28T04:29:58;2.62;;;2.30;;
82000;SDS011;71510;50.558;7.258;2023-12-28T04:32:25;3.77;;;2.67;;
82000;SDS011;71510;50.558;7.258;2023-12-28T04:34:53;4.47;;;2.40;;
82000;SDS011;71510;50.558;7.258;2023-12-28T04:37:20;3.08;;;2.00;;
82000;SDS011;71510;50.558;7.258;2023-12-28T04:39:48;3.70;;;2.70;;
82000;SDS011;71510;50.558;7.258;2023-12-28T04:42:15;7.47;;;3.55;;
82000;SDS011;71510;50.558;7.258;2023-12-28T04:44:42;3.55;;;2.42;;
82000;SDS011;71510;50.558;7.258;2023-12-28T04:47:09;3.22;;;2.25;;
82000;SDS011;71510;50.558;7.258;2023-12-28T04:49:37;4.20;;;2.52;;
82000;SDS011;71510;50.558;7.258;2023-12-28T04:52:04;4.20;;;2.40;;
82000;SDS011;71510;50.558;7.258;2023-12-28T04:54:31;4.25;;;2.70;;
82000;SDS011;71510;50.558;7.258;2023-12-28T04:56:59;3.85;;;2.17;;
82000;SDS011;71510;50.558;7.258;2023-12-28T04:59:26;5.70;;;2.65;;
82000;SDS011;71510;50.558;7.258;2023-12-28T05:01:54;3.72;;;2.60;;
82000;SDS011;71510;50.558;7.258;2023-12-28T05:04:21;3.00;;;2.50;;
82000;SDS011;71510;50.558;7.258;2023-12-28T05:06:48;3.70;;;2.42;;
82000;SDS011;71510;50.558;7.258;2023-12-28T05:09:16;4.72;;;2.37;;
82000;SDS011;71510;50.558;7.258;2023-12-28T05:11:43;5.15;;;2.75;;
82000;SDS011;71510;50.558;7.258;2023-12-28T05:14:10;3.72;;;2.55;;
82000;SDS011;71510;50.558;7.258;2023-12-28T05:16:37;4.17;;;2.58;;
82000;SDS011;71510;50.558;7.258;2023-12-28T05:19:05;4.78;;;2.25;;
82000;SDS011;71510;50.558;7.258;2023-12-28T05:21:32;5.20;;;2.65;;
82000;SDS011;71510;50.558;7.258;2023-12-28T05:23:59;4.00;;;2.45;;
82000;SDS011;71510;50.558;7.258;2023-12-28T05:26:27;5.35;;;2.58;;
82000;SDS011;71510;50.558;7.258;2023-12-28T05:28:54;8.13;;;2.70;;
82000;SDS011;71510;50.558;7.258;2023-12-28T05:31:21;3.05;;;2.25;;
82000;SDS011;71510;50.558;7.258;2023-12-28T05:33:49;5.10;;;2.22;;
82000;SDS011;71510;50.558;7.258;2023-12-28T05:36:16;6.12;;;2.52;;
82000;SDS011;71510;50.558;7.258;2023-12-28T05:38:43;6.15;;;2.55;;
82000;SDS011;71510;50.558;7.258;2023-12-28T05:41:11;3.62;;;2.52;;
82000;SDS011;71510;50.558;7.258;2023-12-28T05:43:38;3.30;;;2.60;;
82000;SDS011;71510;50.558;7.258;2023-12-28T05:46:05;5.35;;;3.02;;
82000;SDS011;71510;50.558;7.258;2023-12-28T05:48:33;5.15;;;2.40;;
82000;SDS011;71510;50.558;7.258;2023-12-28T05:51:00;4.28;;;2.15;;
82000;SDS011;71510;50.558;7.258;2023-12-28T05:53:27;4.33;;;2.87;;
82000;SDS011;71510;50.558;7.258;2023-12-28T05:55:55;4.87;;;2.90;;
82000;SDS011;71510;50.558;7.258;2023-12-28T05:58:22;3.50;;;2.77;;
82000;SDS011;71510;50.558;7.258;2023-12-28T06:00:50;5.35;;;3.05;;
82000;SDS011;71510;50.558;7.258;2023-12-28T06:03:17;5.15;;;2.85;;
82000;SDS011;71510;50.558;7.258;2023-12-28T06:05:44;7.90;;;3.02;;
82000;SDS011;71510;50.558;7.258;2023-12-28T06:08:12;6.72;;;3.35;;
82000;SDS011;71510;50.558;7.258;2023-12-28T06:10:39;5.90;;;2.83;;
82000;SDS011;71510;50.558;7.258;2023-12-28T06:13:07;5.80;;;3.05;;
82000;SDS011;71510;50.558;7.258;2023-12-28T06:15:34;5.92;;;2.77;;
82000;SDS011;71510;50.558;7.258;2023-12-28T06:18:01;5.08;;;2.65;;
82000;SDS011;71510;50.558;7.258;2023-12-28T06:20:30;4.62;;;3.02;;
82000;SDS011;71510;50.558;7.258;2023-12-28T06:22:57;7.33;;;2.55;;
82000;SDS011;71510;50.558;7.258;2023-12-28T06:25:25;8.00;;;3.50;;
82000;SDS011;71510;50.558;7.258;2023-12-28T06:27:52;8.80;;;2.70;;
82000;SDS011;71510;50.558;7.258;2023-12-28T06:30:19;5.37;;;2.80;;
82000;SDS011;71510;50.558;7.258;2023-12-28T06:32:47;8.78;;;2.20;;
82000;SDS011;71510;50.558;7.258;2023-12-28T06:35:15;5.92;;;2.55;;
82000;SDS011;71510;50.558;7.258;2023-12-28T06:37:42;6.00;;;2.55;;
82000;SDS011;71510;50.558;7.258;2023-12-28T06:40:09;5.40;;;2.92;;
82000;SDS011;71510;50.558;7.258;2023-12-28T06:42:37;9.88;;;2.98;;
82000;SDS011;71510;50.558;7.258;2023-12-28T06:45:04;6.17;;;2.40;;
82000;SDS011;71510;50.558;7.258;2023-12-28T06:47:32;6.03;;;2.60;;
82000;SDS011;71510;50.558;7.258;2023-12-28T06:49:59;4.47;;;2.83;;
82000;SDS011;71510;50.558;7.258;2023-12-28T06:52:26;5.58;;;2.60;;
82000;SDS011;71510;50.558;7.258;2023-12-28T06:54:54;8.88;;;2.52;;
82000;SDS011;71510;50.558;7.258;2023-12-28T06:57:21;6.70;;;2.67;;
82000;SDS011;71510;50.558;7.258;2023-12-28T06:59:48;6.62;;;2.75;;
82000;SDS011;71510;50.558;7.258;2023-12-28T07:02:15;3.95;;;2.95;;
82000;SDS011;71510;50.558;7.258;2023-12-28T07:04:43;5.37;;;2.40;;
82000;SDS011;71510;50.558;7.258;2023-12-28T07:07:10;5.30;;;2.80;;
82000;SDS011;71510;50.558;7.258;2023-12-28T07:09:39;3.98;;;2.70;;
82000;SDS011;71510;50.558;7.258;2023-12-28T07:12:06;8.40;;;2.67;;
82000;SDS011;71510;50.558;7.258;2023-12-28T07:14:33;3.67;;;2.22;;
82000;SDS011;71510;50.558;7.258;2023-12-28T07:17:02;5.42;;;3.02;;
82000;SDS011;71510;50.558;7.258;2023-12-28T07:19:30;5.78;;;2.70;;
82000;SDS011;71510;50.558;7.258;2023-12-28T07:21:57;7.97;;;2.60;;
82000;SDS011;71510;50.558;7.258;2023-12-28T07:24:24;10.23;;;3.87;;
82000;SDS011;71510;50.558;7.258;2023-12-28T07:26:51;8.93;;;3.92;;
82000;SDS011;71510;50.558;7.258;2023-12-28T07:29:19;8.18;;;3.05;;
82000;SDS011;71510;50.558;7.258;2023-12-28T07:31:46;6.87;;;2.83;;
82000;SDS011;71510;50.558;7.258;2023-12-28T07:34:13;17.90;;;4.20;;
82000;SDS011;71510;50.558;7.258;2023-12-28T07:36:41;7.80;;;2.45;;
82000;SDS011;71510;50.558;7.258;2023-12-28T07:39:10;6.95;;;2.22;;
82000;SDS011;71510;50.558;7.258;2023-12-28T07:41:37;5.90;;;2.20;;
82000;SDS011;71510;50.558;7.258;2023-12-28T07:44:04;7.65;;;2.45;;
82000;SDS011;71510;50.558;7.258;2023-12-28T07:46:32;4.20;;;1.98;;
82000;SDS011;71510;50.558;7.258;2023-12-28T07:48:59;5.33;;;1.92;;
82000;SDS011;71510;50.558;7.258;2023-12-28T07:51:27;6.92;;;2.40;;
82000;SDS011;71510;50.558;7.258;2023-12-28T07:53:54;5.55;;;2.30;;
82000;SDS011;71510;50.558;7.258;2023-12-28T07:56:21;6.78;;;2.15;;
82000;SDS011;71510;50.558;7.258;2023-12-28T07:58:48;4.60;;;2.08;;
82000;SDS011;71510;50.558;7.258;2023-12-28T08:01:16;7.40;;;1.57;;
82000;SDS011;71510;50.558;7.258;2023-12-28T08:03:44;5.95;;;1.70;;
82000;SDS011;71510;50.558;7.258;2023-12-28T08:06:11;4.05;;;1.75;;
82000;SDS011;71510;50.558;7.258;2023-12-28T08:08:39;4.92;;;2.77;;
82000;SDS011;71510;50.558;7.258;2023-12-28T08:11:06;6.83;;;1.77;;
82000;SDS011;71510;50.558;7.258;2023-12-28T08:13:34;5.87;;;2.25;;
82000;SDS011;71510;50.558;7.258;2023-12-28T08:16:01;7.25;;;2.02;;
82000;SDS011;71510;50.558;7.258;2023-12-28T08:18:29;4.15;;;2.30;;
82000;SDS011;71510;50.558;7.258;2023-12-28T08:20:56;4.95;;;1.87;;
82000;SDS011;71510;50.558;7.258;2023-12-28T08:23:23;4.25;;;1.85;;
82000;SDS011;71510;50.558;7.258;2023-12-28T08:25:51;9.03;;;2.58;;
82000;SDS011;71510;50.558;7.258;2023-12-28T08:28:18;4.78;;;2.10;;
82000;SDS011;71510;50.558;7.258;2023-12-28T08:30:45;5.03;;;2.27;;
82000;SDS011;71510;50.558;7.258;2023-12-28T08:33:13;5.42;;;2.30;;
82000;SDS011;71510;50.558;7.258;2023-12-28T08:35:40;7.28;;;2.15;;
82000;SDS011;71510;50.558;7.258;2023-12-28T08:38:07;6.70;;;1.98;;
82000;SDS011;71510;50.558;7.258;2023-12-28T08:40:35;6.78;;;2.20;;
82000;SDS011;71510;50.558;7.258;2023-12-28T08:43:02;3.90;;;1.30;;
82000;SDS011;71510;50.558;7.258;2023-12-28T08:45:29;3.87;;;1.67;;
82000;SDS011;71510;50.558;7.258;2023-12-28T08:47:57;4.92;;;2.17;;
82000;SDS011;71510;50.558;7.258;2023-12-28T08:50:24;4.87;;;1.65;;
82000;SDS011;71510;50.558;7.258;2023-12-28T08:52:51;9.50;;;1.87;;
82000;SDS011;71510;50.558;7.258;2023-12-28T08:55:19;8.00;;;2.02;;
82000;SDS011;71510;50.558;7.258;2023-12-28T08:57:46;7.90;;;1.92;;
82000;SDS011;71510;50.558;7.258;2023-12-28T09:00:14;7.70;;;2.02;;
82000;SDS011;71510;50.558;7.258;2023-12-28T09:02:43;5.00;;;1.87;;
82000;SDS011;71510;50.558;7.258;2023-12-28T09:05:10;4.40;;;1.40;;
82000;SDS011;71510;50.558;7.258;2023-12-28T09:07:37;6.25;;;1.45;;
82000;SDS011;71510;50.558;7.258;2023-12-28T09:10:06;8.33;;;2.00;;
82000;SDS011;71510;50.558;7.258;2023-12-28T09:12:34;5.97;;;1.70;;
82000;SDS011;71510;50.558;7.258;2023-12-28T09:15:01;6.00;;;2.65;;
82000;SDS011;71510;50.558;7.258;2023-12-28T09:17:29;4.55;;;1.85;;
82000;SDS011;71510;50.558;7.258;2023-12-28T09:19:56;6.35;;;1.87;;
82000;SDS011;71510;50.558;7.258;2023-12-28T09:22:24;7.25;;;1.52;;
82000;SDS011;71510;50.558;7.258;2023-12-28T09:24:52;5.05;;;1.80;;
82000;SDS011;71510;50.558;7.258;2023-12-28T09:27:19;3.47;;;1.40;;
82000;SDS011;71510;50.558;7.258;2023-12-28T09:29:46;6.10;;;1.50;;
82000;SDS011;71510;50.558;7.258;2023-12-28T09:32:13;7.90;;;1.42;;
82000;SDS011;71510;50.558;7.258;2023-12-28T09:34:42;8.33;;;1.87;;
82000;SDS011;71510;50.558;7.258;2023-12-28T09:37:10;6.03;;;1.25;;
82000;SDS011;71510;50.558;7.258;2023-12-28T09:39:37;5.05;;;1.30;;
82000;SDS011;71510;50.558;7.258;2023-12-28T09:42:05;5.12;;;1.70;;
82000;SDS011;71510;50.558;7.258;2023-12-28T09:44:33;4.15;;;1.25;;
82000;SDS011;71510;50.558;7.258;2023-12-28T09:47:02;2.33;;;1.30;;
82000;SDS011;71510;50.558;7.258;2023-12-28T09:49:31;7.05;;;1.75;;
82000;SDS011;71510;50.558;7.258;2023-12-28T09:51:59;3.20;;;1.25;;
82000;SDS011;71510;50.558;7.258;2023-12-28T09:54:27;6.40;;;1.70;;
82000;SDS011;71510;50.558;7.258;2023-12-28T09:56:54;2.50;;;1.50;;
82000;SDS011;71510;50.558;7.258;2023-12-28T09:59:21;6.05;;;1.60;;
82000;SDS011;71510;50.558;7.258;2023-12-28T10:01:49;5.25;;;1.30;;
82000;SDS011;71510;50.558;7.258;2023-12-28T10:04:17;6.00;;;1.90;;
82000;SDS011;71510;50.558;7.258;2023-12-28T10:06:44;3.22;;;1.20;;
82000;SDS011;71510;50.558;7.258;2023-12-28T10:09:11;6.50;;;2.08;;
82000;SDS011;71510;50.558;7.258;2023-12-28T10:11:39;4.05;;;1.42;;
82000;SDS011;71510;50.558;7.258;2023-12-28T10:14:07;5.87;;;1.25;;
82000;SDS011;71510;50.558;7.258;2023-12-28T10:16:39;5.78;;;1.35;;
82000;SDS011;71510;50.558;7.258;2023-12-28T10:19:05;6.67;;;1.35;;
82000;SDS011;71510;50.558;7.258;2023-12-28T10:21:32;7.25;;;1.22;;
82000;SDS011;71510;50.558;7.258;2023-12-28T10:24:01;4.42;;;1.40;;
82000;SDS011;71510;50.558;7.258;2023-12-28T10:26:29;3.30;;;1.15;;
82000;SDS011;71510;50.558;7.258;2023-12-28T10:28:59;3.60;;;1.17;;
82000;SDS011;71510;50.558;7.258;2023-12-28T10:31:28;6.05;;;1.60;;
82000;SDS011;71510;50.558;7.258;2023-12-28T10:33:59;4.35;;;1.20;;
82000;SDS011;71510;50.558;7.258;2023-12-28T10:36:29;7.80;;;1.35;;
82000;SDS011;71510;50.558;7.258;2023-12-28T10:38:58;5.47;;;1.22;;
82000;SDS011;71510;50.558;7.258;2023-12-28T10:41:27;4.28;;;1.25;;
82000;SDS011;71510;50.558;7.258;2023-12-28T10:44:02;4.47;;;1.45;;
82000;SDS011;71510;50.558;7.258;2023-12-28T10:46:27;7.00;;;1.40;;
82000;SDS011;71510;50.558;7.258;2023-12-28T10:49:05;5.30;;;1.10;;
82000;SDS011;71510;50.558;7.258;2023-12-28T10:51:25;5.55;;;1.30;;
82000;SDS011;71510;50.558;7.258;2023-12-28T10:56:28;6.65;;;1.52;;
82000;SDS011;71510;50.558;7.258;2023-12-28T10:59:12;7.08;;;1.22;;
82000;SDS011;71510;50.558;7.258;2023-12-28T11:01:39;5.37;;;1.77;;
82000;SDS011;71510;50.558;7.258;2023-12-28T11:04:13;7.00;;;1.50;;
82000;SDS011;71510;50.558;7.258;2023-12-28T11:06:35;5.75;;;1.62;;
82000;SDS011;71510;50.558;7.258;2023-12-28T11:09:04;6.55;;;1.75;;
82000;SDS011;71510;50.558;7.258;2023-12-28T11:11:33;6.40;;;1.30;;
82000;SDS011;71510;50.558;7.258;2023-12-28T11:14:01;5.47;;;1.50;;
82000;SDS011;71510;50.558;7.258;2023-12-28T11:16:28;6.60;;;1.65;;
82000;SDS011;71510;50.558;7.258;2023-12-28T11:18:56;5.22;;;2.02;;
82000;SDS011;71510;50.558;7.258;2023-12-28T11:21:24;7.33;;;1.25;;
82000;SDS011;71510;50.558;7.258;2023-12-28T11:23:53;5.40;;;1.30;;
82000;SDS011;71510;50.558;7.258;2023-12-28T11:26:21;6.92;;;1.52;;
82000;SDS011;71510;50.558;7.258;2023-12-28T11:28:48;6.75;;;1.62;;
82000;SDS011;71510;50.558;7.258;2023-12-28T11:31:16;6.65;;;1.30;;
82000;SDS011;71510;50.558;7.258;2023-12-28T11:33:50;4.83;;;1.50;;
82000;SDS011;71510;50.558;7.258;2023-12-28T11:36:22;9.05;;;2.20;;
82000;SDS011;71510;50.558;7.258;2023-12-28T11:39:08;6.87;;;1.70;;
82000;SDS011;71510;50.558;7.258;2023-12-28T11:41:36;8.38;;;1.90;;
82000;SDS011;71510;50.558;7.258;2023-12-28T11:44:04;3.67;;;1.30;;
82000;SDS011;71510;50.558;7.258;2023-12-28T11:46:32;8.58;;;1.60;;
82000;SDS011;71510;50.558;7.258;2023-12-28T11:49:05;4.72;;;1.12;;
82000;SDS011;71510;50.558;7.258;2023-12-28T11:51:34;9.78;;;1.70;;
82000;SDS011;71510;50.558;7.258;2023-12-28T11:54:02;5.67;;;1.45;;
82000;SDS011;71510;50.558;7.258;2023-12-28T11:56:30;5.00;;;1.35;;
82000;SDS011;71510;50.558;7.258;2023-12-28T11:58:58;6.85;;;1.30;;
82000;SDS011;71510;50.558;7.258;2023-12-28T12:01:26;8.03;;;1.32;;
82000;SDS011;71510;50.558;7.258;2023-12-28T12:03:53;7.05;;;1.47;;
82000;SDS011;71510;50.558;7.258;2023-12-28T12:06:20;7.72;;;1.50;;
82000;SDS011;71510;50.558;7.258;2023-12-28T12:08:48;7.80;;;1.35;;
82000;SDS011;71510;50.558;7.258;2023-12-28T12:11:16;5.95;;;1.37;;
82000;SDS011;71510;50.558;7.258;2023-12-28T12:13:45;3.35;;;1.27;;
82000;SDS011;71510;50.558;7.258;2023-12-28T12:16:15;6.25;;;1.82;;
82000;SDS011;71510;50.558;7.258;2023-12-28T12:18:43;4.03;;;1.10;;
82000;SDS011;71510;50.558;7.258;2023-12-28T12:21:11;7.22;;;1.45;;
82000;SDS011;71510;50.558;7.258;2023-12-28T12:23:39;7.40;;;1.80;;
82000;SDS011;71510;50.558;7.258;2023-12-28T12:26:07;7.28;;;1.62;;
82000;SDS011;71510;50.558;7.258;2023-12-28T12:28:34;3.72;;;1.00;;
82000;SDS011;71510;50.558;7.258;2023-12-28T12:31:02;4.40;;;1.40;;
82000;SDS011;71510;50.558;7.258;2023-12-28T12:33:30;4.37;;;1.47;;
82000;SDS011;71510;50.558;7.258;2023-12-28T12:35:58;5.97;;;1.35;;
82000;SDS011;71510;50.558;7.258;2023-12-28T12:38:25;6.42;;;1.30;;
82000;SDS011;71510;50.558;7.258;2023-12-28T12:40:53;7.78;;;1.50;;
82000;SDS011;71510;50.558;7.258;2023-12-28T12:43:20;8.85;;;1.60;;
82000;SDS011;71510;50.558;7.258;2023-12-28T12:45:48;7.03;;;1.30;;
82000;SDS011;71510;50.558;7.258;2023-12-28T12:48:15;7.78;;;1.85;;
82000;SDS011;71510;50.558;7.258;2023-12-28T12:50:43;7.83;;;1.70;;
82000;SDS011;71510;50.558;7.258;2023-12-28T12:53:11;5.95;;;1.60;;
82000;SDS011;71510;50.558;7.258;2023-12-28T12:55:39;6.42;;;1.50;;
82000;SDS011;71510;50.558;7.258;2023-12-28T12:58:09;5.20;;;1.45;;
82000;SDS011;71510;50.558;7.258;2023-12-28T13:00:38;5.78;;;2.08;;
82000;SDS011;71510;50.558;7.258;2023-12-28T13:03:09;4.83;;;1.52;;
82000;SDS011;71510;50.558;7.258;2023-12-28T13:05:38;6.85;;;1.50;;
82000;SDS011;71510;50.558;7.258;2023-12-28T13:08:05;7.37;;;1.57;;
82000;SDS011;71510;50.558;7.258;2023-12-28T13:10:33;5.15;;;1.20;;
82000;SDS011;71510;50.558;7.258;2023-12-28T13:13:00;5.80;;;1.40;;
82000;SDS011;71510;50.558;7.258;2023-12-28T13:15:27;7.33;;;1.22;;
82000;SDS011;71510;50.558;7.258;2023-12-28T13:17:55;5.20;;;1.30;;
82000;SDS011;71510;50.558;7.258;2023-12-28T13:20:22;6.22;;;1.40;;
82000;SDS011;71510;50.558;7.258;2023-12-28T13:22:49;5.70;;;1.22;;
82000;SDS011;71510;50.558;7.258;2023-12-28T13:25:17;3.50;;;1.10;;
82000;SDS011;71510;50.558;7.258;2023-12-28T13:27:44;8.33;;;2.05;;
82000;SDS011;71510;50.558;7.258;2023-12-28T13:30:11;5.37;;;1.67;;
82000;SDS011;71510;50.558;7.258;2023-12-28T13:32:39;5.87;;;1.20;;
82000;SDS011;71510;50.558;7.258;2023-12-28T13:35:06;2.10;;;0.95;;
82000;SDS011;71510;50.558;7.258;2023-12-28T13:37:34;6.78;;;2.12;;
82000;SDS011;71510;50.558;7.258;2023-12-28T13:40:01;4.37;;;1.45;;
82000;SDS011;71510;50.558;7.258;2023-12-28T13:42:28;6.95;;;1.57;;
82000;SDS011;71510;50.558;7.258;2023-12-28T13:44:56;6.30;;;1.87;;
82000;SDS011;71510;50.558;7.258;2023-12-28T13:47:23;5.53;;;1.32;;
82000;SDS011;71510;50.558;7.258;2023-12-28T13:49:50;10.10;;;1.98;;
82000;SDS011;71510;50.558;7.258;2023-12-28T13:52:17;6.40;;;1.32;;
82000;SDS011;71510;50.558;7.258;2023-12-28T13:54:45;8.23;;;1.70;;
82000;SDS011;71510;50.558;7.258;2023-12-28T13:57:12;6.47;;;1.20;;
82000;SDS011;71510;50.558;7.258;2023-12-28T13:59:39;8.93;;;1.55;;
82000;SDS011;71510;50.558;7.258;2023-12-28T14:02:07;4.72;;;1.57;;
82000;SDS011;71510;50.558;7.258;2023-12-28T14:04:34;7.83;;;1.60;;
82000;SDS011;71510;50.558;7.258;2023-12-28T14:07:01;6.00;;;1.52;;
82000;SDS011;71510;50.558;7.258;2023-12-28T14:09:30;7.70;;;1.67;;
82000;SDS011;71510;50.558;7.258;2023-12-28T14:11:59;5.92;;;2.00;;
82000;SDS011;71510;50.558;7.258;2023-12-28T14:14:26;5.12;;;1.45;;
82000;SDS011;71510;50.558;7.258;2023-12-28T14:16:53;7.25;;;1.60;;
82000;SDS011;71510;50.558;7.258;2023-12-28T14:19:20;9.38;;;1.67;;
82000;SDS011;71510;50.558;7.258;2023-12-28T14:21:48;4.42;;;1.40;;
82000;SDS011;71510;50.558;7.258;2023-12-28T14:24:16;9.23;;;1.37;;
82000;SDS011;71510;50.558;7.258;2023-12-28T14:26:43;5.65;;;1.40;;
82000;SDS011;71510;50.558;7.258;2023-12-28T14:29:11;7.92;;;1.92;;
82000;SDS011;71510;50.558;7.258;2023-12-28T14:31:39;8.95;;;1.62;;
82000;SDS011;71510;50.558;7.258;2023-12-28T14:34:06;6.45;;;1.35;;
82000;SDS011;71510;50.558;7.258;2023-12-28T14:36:35;10.15;;;1.47;;
82000;SDS011;71510;50.558;7.258;2023-12-28T14:39:05;5.20;;;1.25;;
82000;SDS011;71510;50.558;7.258;2023-12-28T14:41:37;4.85;;;1.52;;
82000;SDS011;71510;50.558;7.258;2023-12-28T14:44:01;7.87;;;1.67;;
82000;SDS011;71510;50.558;7.258;2023-12-28T14:46:28;9.78;;;1.95;;
82000;SDS011;71510;50.558;7.258;2023-12-28T14:48:56;3.75;;;1.35;;
82000;SDS011;71510;50.558;7.258;2023-12-28T14:51:23;8.85;;;1.65;;
82000;SDS011;71510;50.558;7.258;2023-12-28T14:53:50;5.22;;;1.62;;